Flight Track Log - Related Links

Times and Time Zones

All times are in EDT time to prevent confusion due to time zone crossing. See the N8532W flight status page for this flight to view local times or setup timezone preferences in your user account.

Time Position Orientation Groundspeed Altitude Reporting Facility
EDT Latitude Longitude Course Direction KTS MPH feet Rate Location/Type
Fri 11:43:52 AM 31.2158 -97.3425 41° Northeast 98 113 2,900  Level Fort Worth Center
Fri 11:44:53 AM 31.2361 -97.3194 44° Northeast 111 128 3,400 462 Climbing Fort Worth Center
Fri 11:45:10 AM 31.2400 -97.3150 44° Northeast 100 115 3,500 450 Climbing Fort Worth Center
Fri 11:46:13 AM 31.2647 -97.2947 35° Northeast 102 117 4,000 528 Climbing Fort Worth Center
Fri 11:47:15 AM 31.2992 -97.2756 25° Northeast 110 127 4,600 581 Climbing Fort Worth Center
Fri 11:48:17 AM 31.3158 -97.2447 58° Northeast 110 127 5,200 574 Climbing Fort Worth Center
Fri 11:49:00 AM 31.2932 -97.2234 41° Northeast  Level FlightAware Approximate
Fri 11:49:10 AM 31.3314 -97.2214 52° Northeast 104 120 5,700  Level Fort Worth Center
Fri 11:50:21 AM 31.3542 -97.1944 45° Northeast 104 120 6,200 451 Climbing Fort Worth Center
Fri 11:51:23 AM 31.3756 -97.1714 43° Northeast 103 119 6,700 435 Climbing Fort Worth Center
Fri 11:52:25 AM 31.3967 -97.1475 44° Northeast 103 119 7,100 434 Climbing Fort Worth Center
Fri 11:52:46 AM 31.4064 -97.1347 48° Northeast 108 124 7,300 387 Climbing Fort Worth Center
Fri 11:53:27 AM 31.4183 -97.1233 39° Northeast 104 120 7,500 233 Climbing Fort Worth Center
Fri 11:54:29 AM 31.4442 -97.0914 47° Northeast 108 124 7,700 97 Climbing Fort Worth Center
Fri 11:55:31 AM 31.4669 -97.0642 46° Northeast 113 130 7,700  Level Fort Worth Center
Fri 11:56:23 AM 31.4889 -97.0394 44° Northeast 116 133 7,700  Level Fort Worth Center
Fri 11:56:33 AM 31.4900 -97.0381 47° Northeast 113 130 7,700  Level Fort Worth Center
Fri 11:57:35 AM 31.5131 -97.0117 44° Northeast 113 130 7,700  Level Fort Worth Center
Fri 11:58:37 AM 31.5353 -96.9853 45° Northeast 114 131 7,700  Level Fort Worth Center
Fri 11:59:39 AM 31.5583 -96.9589 44° Northeast 115 132 7,700  Level Fort Worth Center
Fri 12:00:23 PM 31.5806 -96.9328 45° Northeast 116 133 7,700  Level Fort Worth Center
Fri 12:00:41 PM 31.5861 -96.9267 43° Northeast 115 132 7,700  Level Fort Worth Center
Fri 12:01:43 PM 31.6083 -96.9003 45° Northeast 115 132 7,700  Level Fort Worth Center
Fri 12:02:45 PM 31.6317 -96.8736 44° Northeast 115 132 7,700  Level Fort Worth Center
Fri 12:03:36 PM 31.6517 -96.8508 44° Northeast 116 133 7,700  Level Fort Worth Center
Fri 12:03:47 PM 31.6553 -96.8467 44° Northeast 116 133 7,700  Level Fort Worth Center
Fri 12:04:49 PM 31.6767 -96.8194 47° Northeast 116 133 7,700  Level Fort Worth Center
Fri 12:05:51 PM 31.7050 -96.7892 42° Northeast 116 133 7,700  Level Fort Worth Center
Fri 12:06:53 PM 31.7278 -96.7614 46° Northeast 116 133 7,700  Level Fort Worth Center
Fri 12:07:56 PM 31.7511 -96.7356 43° Northeast 116 133 7,700  Level Fort Worth Center
Fri 12:08:58 PM 31.7747 -96.7072 46° Northeast 119 137 7,700  Level Fort Worth Center
Fri 12:10:00 PM 31.7986 -96.6803 44° Northeast 120 138 7,700  Level Fort Worth Center
Fri 12:11:02 PM 31.8214 -96.6536 45° Northeast 119 137 7,700  Level Fort Worth Center
Fri 12:12:04 PM 31.8483 -96.6217 45° Northeast 118 136 7,700  Level Fort Worth Center
Fri 12:13:06 PM 31.8706 -96.5967 44° Northeast 114 131 7,700  Level Fort Worth Center
Fri 12:14:08 PM 31.8922 -96.5692 47° Northeast 112 129 7,700  Level Fort Worth Center
Fri 12:15:10 PM 31.9175 -96.5408 44° Northeast 113 130 7,700  Level Fort Worth Center
Fri 12:16:12 PM 31.9400 -96.5150 44° Northeast 114 131 7,700  Level Fort Worth Center
Fri 12:17:14 PM 31.9619 -96.4869 47° Northeast 114 131 7,700  Level Fort Worth Center
Fri 12:18:16 PM 31.9867 -96.4611 42° Northeast 119 137 7,700  Level Fort Worth Center
Fri 12:19:18 PM 32.0086 -96.4336 47° Northeast 119 137 7,700  Level Fort Worth Center
Fri 12:20:20 PM 32.0356 -96.4008 46° Northeast 118 136 7,700  Level Fort Worth Center
Fri 12:21:22 PM 32.0578 -96.3744 45° Northeast 117 135 7,700  Level Fort Worth Center
Fri 12:22:24 PM 32.0803 -96.3486 44° Northeast 117 135 7,700  Level Fort Worth Center
Fri 12:23:26 PM 32.1025 -96.3219 45° Northeast 116 133 7,700  Level Fort Worth Center
Fri 12:24:28 PM 32.1256 -96.2958 44° Northeast 116 133 7,700  Level Fort Worth Center
Fri 12:25:30 PM 32.1475 -96.2692 46° Northeast 116 133 7,700  Level Fort Worth Center
Fri 12:26:31 PM 32.1747 -96.2378 44° Northeast 116 133 7,700  Level Fort Worth Center
Fri 12:27:33 PM 32.1967 -96.2108 46° Northeast 115 132 7,700  Level Fort Worth Center
Fri 12:28:35 PM 32.2194 -96.1847 44° Northeast 115 132 7,700  Level Fort Worth Center
Fri 12:29:37 PM 32.2439 -96.1561 45° Northeast 115 132 7,700  Level Fort Worth Center
Fri 12:30:39 PM 32.2653 -96.1306 45° Northeast 113 130 7,700  Level Fort Worth Center
Fri 12:31:41 PM 32.2900 -96.1022 44° Northeast 113 130 7,700  Level Fort Worth Center
Fri 12:32:43 PM 32.3114 -96.0753 47° Northeast 113 130 7,700  Level Fort Worth Center
Fri 12:33:45 PM 32.3344 -96.0494 43° Northeast 113 130 7,700  Level Fort Worth Center
Fri 12:34:46 PM 32.3583 -96.0217 44° Northeast 113 130 7,700  Level Fort Worth Center
Fri 12:35:48 PM 32.3800 -95.9950 46° Northeast 113 130 7,700  Level Fort Worth Center
Fri 12:36:50 PM 32.4047 -95.9664 44° Northeast 113 130 7,700  Level Fort Worth Center
Fri 12:37:52 PM 32.4264 -95.9397 46° Northeast 113 130 7,700  Level Fort Worth Center
Fri 12:38:53 PM 32.4433 -95.9178 48° Northeast 109 125 7,700  Level Fort Worth Center
Fri 12:39:55 PM 32.4697 -95.8872 44° Northeast 109 125 7,700  Level Fort Worth Center
Fri 12:40:57 PM 32.4942 -95.8597 43° Northeast 116 133 7,700  Level Fort Worth Center
Fri 12:41:58 PM 32.5158 -95.8333 46° Northeast 115 132 7,700  Level Fort Worth Center
Fri 12:43:00 PM 32.5397 -95.8050 45° Northeast 114 131 7,700  Level Fort Worth Center
Fri 12:44:02 PM 32.5617 -95.7794 44° Northeast 114 131 7,700  Level Fort Worth Center
Fri 12:45:03 PM 32.5856 -95.7508 45° Northeast 113 130 7,700  Level Fort Worth Center
Fri 12:46:05 PM 32.6075 -95.7239 46° Northeast 113 130 7,700  Level Fort Worth Center
Fri 12:47:07 PM 32.6294 -95.6969 46° Northeast 113 130 7,700  Level Fort Worth Center
Fri 12:48:08 PM 32.6533 -95.6686 45° Northeast 114 131 7,700  Level Fort Worth Center
Fri 12:49:10 PM 32.6750 -95.6425 45° Northeast 113 130 7,700  Level Fort Worth Center
Fri 12:50:11 PM 32.6972 -95.6153 46° Northeast 113 130 7,700  Level Fort Worth Center
Fri 12:51:13 PM 32.7169 -95.5911 46° Northeast 112 129 7,700  Level Fort Worth Center
Fri 12:52:14 PM 32.7394 -95.5644 45° Northeast 112 129 7,700  Level Fort Worth Center
Fri 12:53:16 PM 32.7614 -95.5381 45° Northeast 112 129 7,700  Level Fort Worth Center
Fri 12:54:18 PM 32.7889 -95.5067 44° Northeast 115 132 7,700  Level Fort Worth Center
Fri 12:55:19 PM 32.8117 -95.4789 46° Northeast 115 132 7,700  Level Fort Worth Center
Fri 12:56:21 PM 32.8328 -95.4514 48° Northeast 115 132 7,700  Level Fort Worth Center
Fri 12:57:22 PM 32.8542 -95.4247 46° Northeast 115 132 7,700  Level Fort Worth Center
Fri 12:58:24 PM 32.8775 -95.3983 44° Northeast 115 132 7,700  Level Fort Worth Center
Fri 12:59:26 PM 32.9000 -95.3722 44° Northeast 114 131 7,700  Level Fort Worth Center
Fri 01:00:27 PM 32.9203 -95.3439 50° Northeast 114 131 7,700  Level Fort Worth Center
Fri 01:01:29 PM 32.9450 -95.3172 42° Northeast 114 131 7,700  Level Fort Worth Center
Fri 01:02:30 PM 32.9719 -95.2844 46° Northeast 115 132 7,700  Level Fort Worth Center
Fri 01:03:32 PM 32.9914 -95.2600 47° Northeast 115 132 7,700  Level Fort Worth Center
Fri 01:04:33 PM 33.0144 -95.2328 45° Northeast 115 132 7,700 -49 Level Fort Worth Center
Fri 01:05:35 PM 33.0386 -95.2003 48° Northeast 114 131 7,600 -49 Descending Fort Worth Center
Fri 01:06:36 PM 33.0617 -95.1731 45° Northeast 114 131 7,600  Level Fort Worth Center
Fri 01:07:38 PM 33.0844 -95.1464 44° Northeast 114 131 7,600  Level Fort Worth Center
Fri 01:08:40 PM 33.1050 -95.1189 48° Northeast 114 131 7,600  Level Fort Worth Center
Fri 01:09:41 PM 33.1289 -95.0931 42° Northeast 114 131 7,600  Level Fort Worth Center
Fri 01:10:43 PM 33.1508 -95.0661 46° Northeast 114 131 7,600  Level Fort Worth Center
Fri 01:11:44 PM 33.1733 -95.0389 45° Northeast 114 131 7,600  Level Fort Worth Center
Fri 01:12:46 PM 33.1950 -95.0128 45° Northeast 114 131 7,600  Level Fort Worth Center
Fri 01:13:47 PM 33.2217 -94.9789 47° Northeast 114 131 7,600  Level Fort Worth Center
Fri 01:14:49 PM 33.2442 -94.9519 45° Northeast 114 131 7,600  Level Fort Worth Center
Fri 01:15:50 PM 33.2667 -94.9247 45° Northeast 114 131 7,600  Level Fort Worth Center
Fri 01:16:52 PM 33.2892 -94.8967 46° Northeast 114 131 7,600  Level Fort Worth Center
Fri 01:17:54 PM 33.3108 -94.8697 46° Northeast 114 131 7,600  Level Fort Worth Center
Fri 01:18:56 PM 33.3336 -94.8419 46° Northeast 114 131 7,600  Level Fort Worth Center
Fri 01:19:57 PM 33.3556 -94.8150 46° Northeast 114 131 7,600  Level Fort Worth Center
Fri 01:20:59 PM 33.3781 -94.7875 46° Northeast 114 131 7,600  Level Fort Worth Center
Fri 01:22:00 PM 33.4056 -94.7539 46° Northeast 114 131 7,600  Level Fort Worth Center
Fri 01:23:02 PM 33.4281 -94.7269 45° Northeast 114 131 7,600  Level Fort Worth Center
Fri 01:24:04 PM 33.4508 -94.6989 46° Northeast 114 131 7,600  Level Fort Worth Center
Fri 01:25:05 PM 33.4728 -94.6708 47° Northeast 115 132 7,600  Level Fort Worth Center
Fri 01:26:07 PM 33.4961 -94.6436 44° Northeast 115 132 7,600  Level Fort Worth Center
Fri 01:27:08 PM 33.5181 -94.6142 48° Northeast 115 132 7,600  Level Fort Worth Center
Fri 01:28:10 PM 33.5417 -94.5869 44° Northeast 115 132 7,600  Level Fort Worth Center
Fri 01:29:12 PM 33.5653 -94.5583 45° Northeast 115 132 7,600  Level Fort Worth Center
Fri 01:30:13 PM 33.5931 -94.5239 46° Northeast 116 133 7,600  Level Fort Worth Center
Fri 01:31:15 PM 33.6156 -94.4942 48° Northeast 116 133 7,600  Level Fort Worth Center
Fri 01:32:17 PM 33.6389 -94.4653 46° Northeast 117 135 7,600  Level Fort Worth Center
Fri 01:33:18 PM 33.6619 -94.4369 46° Northeast 117 135 7,600  Level Fort Worth Center
Fri 01:34:20 PM 33.6842 -94.4094 46° Northeast 117 135 7,600  Level Fort Worth Center
Fri 01:35:22 PM 33.7078 -94.3822 44° Northeast 117 135 7,600  Level Fort Worth Center
Fri 01:36:24 PM 33.7303 -94.3536 47° Northeast 117 135 7,600  Level Fort Worth Center
Fri 01:37:25 PM 33.7575 -94.3200 46° Northeast 117 135 7,600  Level Fort Worth Center
Fri 01:38:27 PM 33.7797 -94.2919 46° Northeast 117 135 7,600  Level Fort Worth Center
Fri 01:39:29 PM 33.8017 -94.2636 47° Northeast 117 135 7,600  Level Fort Worth Center
Fri 01:40:30 PM 33.8244 -94.2361 45° Northeast 117 135 7,600  Level Fort Worth Center
Fri 01:41:32 PM 33.8464 -94.2078 47° Northeast 117 135 7,600  Level Fort Worth Center
Fri 01:42:34 PM 33.8689 -94.1800 46° Northeast 116 133 7,600  Level Fort Worth Center

Login

Don't have an account? Register now (free) for customized features, flight alerts, and more!